createdAt,value
2023-02-16T00:00:52.273Z,100.00
2023-02-16T00:01:54.699Z,100.00
2023-02-16T00:02:57.178Z,100.00
2023-02-16T00:03:59.295Z,100.00
2023-02-16T00:05:20.996Z,100.00
2023-02-16T00:06:27.225Z,100.00
2023-02-16T00:07:29.823Z,100.00
2023-02-16T00:08:31.889Z,100.00
2023-02-16T00:09:33.589Z,100.00
2023-02-16T00:10:37.606Z,100.00
2023-02-16T00:11:58.122Z,100.00
2023-02-16T00:13:18.849Z,100.00
2023-02-16T00:14:26.479Z,100.00
2023-02-16T00:15:28.383Z,100.00
2023-02-16T00:16:30.296Z,100.00
2023-02-16T00:17:32.060Z,100.00
2023-02-16T00:18:33.806Z,100.00
2023-02-16T00:19:40.681Z,100.00
2023-02-16T00:20:42.520Z,100.00
2023-02-16T00:21:44.290Z,100.00
2023-02-16T00:22:46.754Z,100.00
2023-02-16T00:23:48.655Z,100.00
2023-02-16T00:24:50.561Z,100.00
2023-02-16T00:25:52.288Z,100.00
2023-02-16T00:26:54.374Z,100.00
2023-02-16T00:27:56.151Z,100.00
2023-02-16T00:29:01.406Z,100.00
2023-02-16T00:30:05.664Z,100.00
2023-02-16T00:31:09.112Z,100.00
2023-02-16T00:32:12.597Z,100.00
2023-02-16T00:33:19.635Z,100.00
2023-02-16T00:34:36.707Z,100.00
2023-02-16T00:35:38.530Z,100.00
2023-02-16T00:36:41.195Z,100.00
2023-02-16T00:37:43.552Z,100.00
2023-02-16T00:38:45.497Z,100.00
2023-02-16T00:39:47.452Z,100.00
2023-02-16T00:40:49.274Z,100.00
2023-02-16T00:41:55.093Z,100.00
2023-02-16T00:42:57.948Z,100.00
2023-02-16T00:44:00.462Z,100.00
2023-02-16T00:45:04.944Z,100.00
2023-02-16T00:46:06.564Z,100.00
2023-02-16T00:47:23.630Z,100.00
2023-02-16T00:48:25.694Z,100.00
2023-02-16T00:49:27.764Z,100.00
2023-02-16T00:50:32.618Z,100.00
2023-02-16T00:51:34.264Z,100.00
2023-02-16T00:52:38.949Z,100.00
2023-02-16T00:53:40.527Z,100.00
2023-02-16T00:54:42.169Z,100.00
2023-02-16T00:55:45.255Z,100.00
2023-02-16T00:56:47.508Z,100.00
2023-02-16T00:57:56.053Z,100.00
2023-02-16T00:58:57.971Z,100.00
2023-02-16T01:00:19.080Z,100.00
2023-02-16T01:01:24.778Z,100.00
2023-02-16T01:02:26.649Z,100.00
2023-02-16T01:03:29.843Z,100.00
2023-02-16T01:04:31.444Z,100.00
2023-02-16T01:05:33.362Z,100.00
2023-02-16T01:06:54.216Z,100.00
2023-02-16T01:08:16.076Z,100.00
2023-02-16T01:09:40.037Z,100.00
2023-02-16T01:11:00.175Z,100.00
2023-02-16T01:12:04.605Z,100.00
2023-02-16T01:13:06.351Z,100.00
2023-02-16T01:14:12.219Z,100.00
2023-02-16T01:15:16.255Z,100.00
2023-02-16T01:16:26.987Z,100.00
2023-02-16T01:17:29.079Z,100.00
2023-02-16T01:18:31.031Z,100.00
2023-02-16T01:19:32.917Z,100.00
2023-02-16T01:20:38.501Z,100.00
2023-02-16T01:21:40.895Z,100.00
2023-02-16T01:22:43.603Z,100.00
2023-02-16T01:23:45.768Z,100.00
2023-02-16T01:24:47.516Z,100.00
2023-02-16T01:25:49.459Z,100.00
2023-02-16T01:26:51.205Z,100.00
2023-02-16T01:27:54.031Z,100.00
2023-02-16T01:28:56.407Z,100.00
2023-02-16T01:29:59.117Z,100.00
2023-02-16T01:31:00.986Z,100.00
2023-02-16T01:32:02.831Z,100.00
2023-02-16T01:33:04.552Z,100.00
2023-02-16T01:34:06.997Z,100.00
2023-02-16T01:35:10.352Z,100.00
2023-02-16T01:36:32.882Z,100.00
2023-02-16T01:37:36.473Z,100.00
2023-02-16T01:38:38.345Z,100.00
2023-02-16T01:39:39.902Z,100.00
2023-02-16T01:40:46.465Z,100.00
2023-02-16T01:42:03.619Z,100.00
2023-02-16T01:43:30.518Z,100.00
2023-02-16T01:44:41.302Z,100.00
2023-02-16T01:45:47.990Z,100.00
2023-02-16T01:47:05.826Z,100.00
2023-02-16T01:48:20.793Z,100.00
2023-02-16T01:49:23.064Z,100.00
2023-02-16T01:50:34.652Z,100.00
2023-02-16T01:51:52.820Z,100.00
2023-02-16T01:53:02.274Z,100.00
2023-02-16T01:54:33.171Z,100.00
2023-02-16T01:55:42.360Z,100.00
2023-02-16T01:56:55.350Z,100.00
2023-02-16T01:58:02.560Z,100.00
2023-02-16T01:59:16.900Z,100.00
2023-02-16T02:00:49.908Z,100.00
2023-02-16T02:02:04.141Z,100.00
2023-02-16T02:03:34.764Z,100.00
2023-02-16T02:05:04.144Z,100.00
2023-02-16T02:06:10.382Z,100.00
2023-02-16T02:07:20.920Z,100.00
2023-02-16T02:08:34.879Z,100.00
2023-02-16T02:09:45.424Z,100.00
2023-02-16T02:10:55.459Z,100.00
2023-02-16T02:12:27.451Z,100.00
2023-02-16T02:13:38.057Z,100.00
2023-02-16T02:14:40.254Z,100.00
2023-02-16T02:15:42.186Z,100.00
2023-02-16T02:16:57.091Z,100.00
2023-02-16T02:17:58.899Z,100.00
2023-02-16T02:19:00.849Z,100.00
2023-02-16T02:20:11.064Z,100.00
2023-02-16T02:22:33.384Z,100.00
2023-02-16T02:23:54.011Z,100.00
2023-02-16T02:25:04.889Z,100.00
2023-02-16T02:26:28.174Z,100.00
2023-02-16T02:27:54.022Z,100.00
2023-02-16T02:29:14.714Z,100.00
2023-02-16T02:30:42.997Z,100.00
2023-02-16T02:31:55.571Z,100.00
2023-02-16T02:33:26.291Z,100.00
2023-02-16T02:34:50.046Z,100.00
2023-02-16T02:36:14.601Z,100.00
2023-02-16T02:37:18.920Z,100.00
2023-02-16T02:39:02.099Z,100.00
2023-02-16T02:40:09.891Z,100.00
2023-02-16T02:43:08.870Z,100.00
2023-02-16T02:44:13.381Z,100.00
2023-02-16T02:45:44.074Z,100.00
2023-02-16T02:46:47.258Z,100.00
2023-02-16T02:47:49.671Z,100.00
2023-02-16T02:48:54.191Z,100.00
2023-02-16T02:49:56.128Z,100.00
2023-02-16T02:51:19.628Z,100.00
2023-02-16T02:52:22.925Z,100.00
2023-02-16T02:53:24.822Z,100.00
2023-02-16T02:54:53.382Z,100.00
2023-02-16T02:56:17.942Z,100.00
2023-02-16T02:57:47.379Z,100.00
2023-02-16T02:59:13.186Z,100.00
2023-02-16T03:00:47.494Z,100.00
2023-02-16T03:01:55.220Z,100.00
2023-02-16T03:03:05.799Z,100.00
2023-02-16T03:04:10.236Z,100.00
2023-02-16T03:05:13.924Z,100.00
2023-02-16T03:06:25.144Z,100.00
2023-02-16T03:07:46.810Z,100.00
2023-02-16T03:08:54.825Z,100.00
2023-02-16T03:10:16.655Z,100.00
2023-02-16T03:11:48.255Z,100.00
2023-02-16T03:12:50.487Z,100.00
2023-02-16T03:13:58.698Z,100.00
2023-02-16T03:15:02.985Z,100.00
2023-02-16T03:16:15.135Z,100.00
2023-02-16T03:17:39.387Z,100.00
2023-02-16T03:19:02.487Z,100.00
2023-02-16T03:20:27.295Z,100.00
2023-02-16T03:21:49.067Z,100.00
2023-02-16T03:23:10.104Z,100.00
2023-02-16T03:24:37.928Z,100.00
2023-02-16T03:25:59.967Z,100.00
2023-02-16T03:27:21.309Z,100.00
2023-02-16T03:28:46.803Z,100.00
2023-02-16T03:29:51.175Z,100.00
2023-02-16T03:30:55.055Z,100.00
2023-02-16T03:31:57.912Z,100.00
2023-02-16T03:33:00.218Z,100.00
2023-02-16T03:34:03.189Z,100.00
2023-02-16T03:35:06.086Z,100.00
2023-02-16T03:36:09.641Z,100.00
2023-02-16T03:37:13.026Z,100.00
2023-02-16T03:38:14.881Z,100.00
2023-02-16T03:39:17.840Z,100.00
2023-02-16T03:40:30.041Z,100.00
2023-02-16T03:41:40.313Z,100.00
2023-02-16T03:42:50.243Z,100.00
2023-02-16T03:43:52.640Z,100.00
2023-02-16T03:44:54.731Z,100.00
2023-02-16T03:45:56.646Z,100.00
2023-02-16T03:46:58.392Z,100.00
2023-02-16T03:48:01.692Z,100.00
2023-02-16T03:49:04.761Z,100.00
2023-02-16T03:50:07.448Z,100.00
2023-02-16T03:51:09.174Z,100.00
2023-02-16T03:52:11.058Z,100.00
2023-02-16T03:53:13.601Z,100.00
2023-02-16T03:54:15.356Z,100.00
2023-02-16T03:55:17.859Z,100.00
2023-02-16T03:56:20.678Z,100.00
2023-02-16T03:57:22.848Z,100.00
2023-02-16T03:58:25.251Z,100.00
2023-02-16T03:59:27.286Z,100.00
2023-02-16T04:00:29.774Z,100.00
2023-02-16T04:01:31.724Z,100.00
2023-02-16T04:02:33.843Z,100.00
2023-02-16T04:03:36.111Z,100.00
2023-02-16T04:04:39.115Z,100.00
2023-02-16T04:05:41.714Z,100.00
2023-02-16T04:06:43.805Z,100.00
2023-02-16T04:07:45.767Z,100.00
2023-02-16T04:08:47.581Z,100.00
2023-02-16T04:09:49.244Z,100.00
2023-02-16T04:10:51.047Z,100.00
2023-02-16T04:12:11.325Z,100.00
2023-02-16T04:13:13.183Z,100.00
2023-02-16T04:14:15.086Z,100.00
2023-02-16T04:15:20.625Z,100.00
2023-02-16T04:16:22.968Z,100.00
2023-02-16T04:17:25.685Z,100.00
2023-02-16T04:18:27.801Z,100.00
2023-02-16T04:19:30.806Z,100.00
2023-02-16T04:20:34.117Z,100.00
2023-02-16T04:21:36.368Z,100.00
2023-02-16T04:22:38.392Z,100.00
2023-02-16T04:23:40.940Z,100.00
2023-02-16T04:24:44.217Z,100.00
2023-02-16T04:25:46.149Z,100.00
2023-02-16T04:26:49.577Z,100.00
2023-02-16T04:27:52.266Z,100.00
2023-02-16T04:28:54.473Z,100.00
2023-02-16T04:29:56.284Z,100.00
2023-02-16T04:30:58.557Z,100.00
2023-02-16T04:32:00.467Z,100.00
2023-02-16T04:33:02.325Z,100.00
2023-02-16T04:34:04.254Z,100.00
2023-02-16T04:35:07.542Z,100.00
2023-02-16T04:36:09.906Z,100.00
2023-02-16T04:37:12.119Z,100.00
2023-02-16T04:38:14.409Z,100.00
2023-02-16T04:39:16.328Z,100.00
2023-02-16T04:40:18.901Z,100.00
2023-02-16T04:41:20.880Z,100.00
2023-02-16T04:42:22.967Z,100.00
2023-02-16T04:43:25.631Z,100.00
2023-02-16T04:44:27.736Z,100.00
2023-02-16T04:45:29.928Z,100.00
2023-02-16T04:46:31.964Z,100.00
2023-02-16T04:47:34.218Z,100.00
2023-02-16T04:48:35.978Z,100.00
2023-02-16T04:49:37.648Z,100.00
2023-02-16T04:50:40.934Z,100.00
2023-02-16T04:51:42.604Z,100.00
2023-02-16T04:52:44.684Z,100.00
2023-02-16T04:53:47.001Z,100.00
2023-02-16T04:54:50.281Z,100.00
2023-02-16T04:55:52.215Z,100.00
2023-02-16T04:56:53.997Z,100.00
2023-02-16T04:57:56.515Z,100.00
2023-02-16T04:58:58.611Z,100.00
2023-02-16T05:00:02.184Z,100.00
2023-02-16T05:01:05.206Z,100.00
2023-02-16T05:02:07.547Z,100.00
2023-02-16T05:03:09.649Z,100.00
2023-02-16T05:04:11.763Z,100.00
2023-02-16T05:05:13.721Z,100.00
2023-02-16T05:06:15.913Z,100.00
2023-02-16T05:07:18.024Z,100.00
2023-02-16T05:08:20.945Z,100.00
2023-02-16T05:09:23.749Z,100.00
2023-02-16T05:10:25.379Z,100.00
2023-02-16T05:11:45.954Z,100.00
2023-02-16T05:13:06.374Z,100.00
2023-02-16T05:14:36.430Z,100.00
2023-02-16T05:15:38.488Z,100.00
2023-02-16T05:16:40.246Z,100.00
2023-02-16T05:17:42.357Z,100.00
2023-02-16T05:18:44.107Z,100.00
2023-02-16T05:19:52.127Z,100.00
2023-02-16T05:21:12.412Z,100.00
2023-02-16T05:22:15.093Z,100.00
2023-02-16T05:23:17.231Z,100.00
2023-02-16T05:24:19.364Z,100.00
2023-02-16T05:25:22.410Z,100.00
2023-02-16T05:26:24.605Z,100.00
2023-02-16T05:27:28.916Z,100.00
2023-02-16T05:28:30.997Z,100.00
2023-02-16T05:29:34.326Z,100.00
2023-02-16T05:30:36.455Z,100.00
2023-02-16T05:31:38.222Z,100.00
2023-02-16T05:32:40.195Z,100.00
2023-02-16T05:33:41.931Z,100.00
2023-02-16T05:34:45.631Z,100.00
2023-02-16T05:35:47.498Z,100.00
2023-02-16T05:36:49.394Z,100.00
2023-02-16T05:37:51.594Z,100.00
2023-02-16T05:38:53.936Z,100.00
2023-02-16T05:39:55.832Z,100.00
2023-02-16T05:40:59.589Z,100.00
2023-02-16T05:42:01.434Z,100.00
2023-02-16T05:43:03.241Z,100.00
2023-02-16T05:44:05.464Z,100.00
2023-02-16T05:45:07.830Z,100.00
2023-02-16T05:46:09.914Z,100.00
2023-02-16T05:47:12.945Z,100.00
2023-02-16T05:48:15.316Z,100.00
2023-02-16T05:49:18.341Z,100.00
2023-02-16T05:50:20.377Z,100.00
2023-02-16T05:51:22.629Z,100.00
2023-02-16T05:52:24.687Z,100.00
2023-02-16T05:53:26.797Z,100.00
2023-02-16T05:54:29.030Z,100.00
2023-02-16T05:55:31.632Z,100.00
2023-02-16T05:56:33.793Z,100.00
2023-02-16T05:57:35.792Z,100.00
2023-02-16T05:58:37.939Z,100.00
2023-02-16T05:59:39.658Z,100.00
2023-02-16T06:00:41.364Z,100.00
2023-02-16T06:01:47.326Z,100.00
2023-02-16T06:02:50.585Z,100.00
2023-02-16T06:03:52.576Z,100.00
2023-02-16T06:04:54.559Z,100.00
2023-02-16T06:05:59.693Z,100.00
2023-02-16T06:07:02.908Z,100.00
2023-02-16T06:08:05.073Z,100.00
2023-02-16T06:09:08.462Z,100.00
2023-02-16T06:10:10.371Z,100.00
2023-02-16T06:11:31.367Z,100.00
2023-02-16T06:12:34.727Z,100.00
2023-02-16T06:13:36.855Z,100.00
2023-02-16T06:14:38.641Z,100.00
2023-02-16T06:15:40.742Z,100.00
2023-02-16T06:16:45.023Z,100.00
2023-02-16T06:17:49.583Z,100.00
2023-02-16T06:18:51.309Z,100.00
2023-02-16T06:19:53.130Z,100.00
2023-02-16T06:20:57.133Z,100.00
2023-02-16T06:21:59.049Z,100.00
2023-02-16T06:23:01.070Z,100.00
2023-02-16T06:24:03.781Z,100.00
2023-02-16T06:25:05.940Z,100.00
2023-02-16T06:26:07.962Z,100.00
2023-02-16T06:27:09.920Z,100.00
2023-02-16T06:28:11.676Z,100.00
2023-02-16T06:29:13.699Z,100.00
2023-02-16T06:30:16.102Z,100.00
2023-02-16T06:31:18.407Z,100.00
2023-02-16T06:32:20.978Z,100.00
2023-02-16T06:33:22.975Z,100.00
2023-02-16T06:34:24.747Z,100.00
2023-02-16T06:35:26.611Z,100.00
2023-02-16T06:36:28.534Z,100.00
2023-02-16T06:37:30.971Z,100.00
2023-02-16T06:38:34.187Z,100.00
2023-02-16T06:39:36.251Z,100.00
2023-02-16T06:40:38.152Z,100.00
2023-02-16T06:41:42.935Z,100.00
2023-02-16T06:42:45.368Z,100.00
2023-02-16T06:43:47.326Z,100.00
2023-02-16T06:44:49.377Z,100.00
2023-02-16T06:45:51.911Z,100.00
2023-02-16T06:46:54.090Z,100.00
2023-02-16T06:47:55.974Z,100.00
2023-02-16T06:48:58.783Z,100.00
2023-02-16T06:50:01.345Z,100.00
2023-02-16T06:51:03.914Z,100.00
2023-02-16T06:52:06.407Z,100.00
2023-02-16T06:53:10.789Z,100.00
2023-02-16T06:54:13.511Z,100.00
2023-02-16T06:55:15.586Z,100.00
2023-02-16T06:56:17.605Z,100.00
2023-02-16T06:57:19.374Z,100.00
2023-02-16T06:58:21.132Z,100.00
2023-02-16T06:59:23.056Z,100.00
2023-02-16T07:00:25.238Z,100.00
2023-02-16T07:01:27.134Z,100.00
2023-02-16T07:02:29.067Z,100.00
2023-02-16T07:03:30.918Z,100.00
2023-02-16T07:04:32.661Z,100.00
2023-02-16T07:05:34.649Z,100.00
2023-02-16T07:06:37.299Z,100.00
2023-02-16T07:07:41.031Z,100.00
2023-02-16T07:08:43.038Z,100.00
2023-02-16T07:09:45.214Z,100.00
2023-02-16T07:10:50.364Z,100.00
2023-02-16T07:11:52.799Z,100.00
2023-02-16T07:12:54.982Z,100.00
2023-02-16T07:13:57.206Z,100.00
2023-02-16T07:14:58.886Z,100.00
2023-02-16T07:16:00.876Z,100.00
2023-02-16T07:17:04.574Z,100.00
2023-02-16T07:18:06.597Z,100.00
2023-02-16T07:19:08.845Z,100.00
2023-02-16T07:20:13.022Z,100.00
2023-02-16T07:21:15.334Z,100.00
2023-02-16T07:22:17.845Z,100.00
2023-02-16T07:23:19.717Z,100.00
2023-02-16T07:24:21.551Z,100.00
2023-02-16T07:25:26.106Z,100.00
2023-02-16T07:26:28.390Z,100.00
2023-02-16T07:27:30.363Z,100.00
2023-02-16T07:28:32.749Z,100.00
2023-02-16T07:29:35.252Z,100.00
2023-02-16T07:30:37.271Z,100.00
2023-02-16T07:31:39.356Z,100.00
2023-02-16T07:32:41.805Z,100.00
2023-02-16T07:33:44.663Z,100.00
2023-02-16T07:34:46.500Z,100.00
2023-02-16T07:35:50.330Z,100.00
2023-02-16T07:36:52.236Z,100.00
2023-02-16T07:37:54.542Z,100.00
2023-02-16T07:38:56.796Z,100.00
2023-02-16T07:39:58.860Z,100.00
2023-02-16T07:41:00.708Z,100.00
2023-02-16T07:42:02.482Z,100.00
2023-02-16T07:43:06.378Z,100.00
2023-02-16T07:44:08.895Z,100.00
2023-02-16T07:45:10.998Z,100.00
2023-02-16T07:46:13.571Z,100.00
2023-02-16T07:47:15.438Z,100.00
2023-02-16T07:48:18.107Z,100.00
2023-02-16T07:49:20.178Z,100.00
2023-02-16T07:50:22.521Z,100.00
2023-02-16T07:51:26.871Z,100.00
2023-02-16T07:52:31.605Z,100.00
2023-02-16T07:53:34.345Z,100.00
2023-02-16T07:54:36.561Z,100.00
2023-02-16T07:55:45.948Z,100.00
2023-02-16T07:56:48.288Z,100.00
2023-02-16T07:57:55.540Z,100.00
2023-02-16T07:58:59.973Z,100.00
2023-02-16T08:00:02.351Z,100.00
2023-02-16T08:01:10.638Z,100.00
2023-02-16T08:02:17.114Z,90.10
2023-02-16T08:03:19.217Z,84.68
2023-02-16T08:04:21.086Z,93.51
2023-02-16T08:05:23.462Z,80.51
2023-02-16T08:06:25.446Z,86.43
2023-02-16T08:07:28.309Z,76.33
2023-02-16T08:08:30.692Z,72.70
2023-02-16T08:09:34.211Z,72.00
2023-02-16T08:10:36.065Z,70.73
2023-02-16T08:11:38.074Z,69.22
2023-02-16T08:12:40.127Z,64.60
2023-02-16T08:13:42.280Z,65.17
2023-02-16T08:14:46.594Z,64.52
2023-02-16T08:15:48.539Z,65.54
2023-02-16T08:16:53.540Z,57.78
2023-02-16T08:17:56.557Z,56.74
2023-02-16T08:19:00.278Z,53.18
2023-02-16T08:20:03.705Z,53.05
2023-02-16T08:21:15.797Z,52.40
2023-02-16T08:22:18.507Z,52.01
2023-02-16T08:23:20.996Z,49.60
2023-02-16T08:24:25.268Z,48.00
2023-02-16T08:25:27.523Z,46.96
2023-02-16T08:26:37.274Z,46.35
2023-02-16T08:27:38.913Z,44.74
2023-02-16T08:28:50.227Z,44.44
2023-02-16T08:29:52.215Z,41.69
2023-02-16T08:30:54.135Z,42.33
2023-02-16T08:31:56.988Z,42.27
2023-02-16T08:33:01.374Z,43.50
2023-02-16T08:34:04.827Z,42.90
2023-02-16T08:35:08.185Z,42.49
2023-02-16T08:36:30.365Z,40.14
2023-02-16T08:37:33.506Z,39.67
2023-02-16T08:38:43.281Z,39.44
2023-02-16T08:39:45.416Z,39.28
2023-02-16T08:40:51.082Z,38.13
2023-02-16T08:41:54.419Z,38.01
2023-02-16T08:42:56.464Z,37.53
2023-02-16T08:43:58.970Z,37.85
2023-02-16T08:45:00.819Z,37.29
2023-02-16T08:46:02.890Z,37.24
2023-02-16T08:47:05.254Z,36.76
2023-02-16T08:48:07.382Z,36.08
2023-02-16T08:49:11.353Z,36.31
2023-02-16T08:50:13.211Z,35.95
2023-02-16T08:51:17.769Z,36.71
2023-02-16T08:52:19.565Z,36.82
2023-02-16T08:53:23.477Z,36.90
2023-02-16T08:54:29.923Z,38.40
2023-02-16T08:55:31.682Z,39.59
2023-02-16T08:56:34.930Z,39.21
2023-02-16T08:57:37.362Z,39.59
2023-02-16T08:58:39.640Z,40.21
2023-02-16T08:59:41.506Z,39.23
2023-02-16T09:00:43.555Z,39.10
2023-02-16T09:01:45.868Z,38.42
2023-02-16T09:02:48.325Z,38.64
2023-02-16T09:03:52.625Z,38.86
2023-02-16T09:04:54.614Z,40.65
2023-02-16T09:06:01.789Z,40.29
2023-02-16T09:07:05.024Z,40.08
2023-02-16T09:08:07.409Z,39.09
2023-02-16T09:09:10.360Z,39.69
2023-02-16T09:10:12.267Z,39.11
2023-02-16T09:11:16.118Z,39.35
2023-02-16T09:12:17.974Z,39.09
2023-02-16T09:13:19.793Z,37.67
2023-02-16T09:14:23.293Z,37.26
2023-02-16T09:15:25.163Z,37.14
2023-02-16T09:16:33.861Z,36.38
2023-02-16T09:17:36.144Z,36.40
2023-02-16T09:18:39.519Z,36.68
2023-02-16T09:19:43.676Z,36.47
2023-02-16T09:20:47.078Z,36.13
2023-02-16T09:21:56.460Z,35.67
2023-02-16T09:22:58.414Z,35.12
2023-02-16T09:24:05.553Z,36.10
2023-02-16T09:25:08.613Z,36.59
2023-02-16T09:26:11.201Z,35.58
2023-02-16T09:27:13.032Z,34.50
2023-02-16T09:28:16.122Z,35.46
2023-02-16T09:29:18.541Z,34.88
2023-02-16T09:30:21.346Z,34.33
2023-02-16T09:31:31.807Z,35.38
2023-02-16T09:32:33.729Z,34.16
2023-02-16T09:33:35.396Z,33.56
2023-02-16T09:34:38.440Z,33.31
2023-02-16T09:35:40.166Z,33.60
2023-02-16T09:36:42.412Z,34.52
2023-02-16T09:37:44.183Z,33.60
2023-02-16T09:38:47.965Z,33.26
2023-02-16T09:39:49.740Z,33.07
2023-02-16T09:40:52.233Z,32.85
2023-02-16T09:42:36.314Z,33.39
2023-02-16T09:43:45.626Z,34.26
2023-02-16T09:45:09.952Z,33.45
2023-02-16T09:46:17.763Z,33.08
2023-02-16T09:47:31.259Z,34.18
2023-02-16T09:48:45.458Z,33.58
2023-02-16T09:49:49.275Z,33.73
2023-02-16T09:50:54.865Z,33.50
2023-02-16T09:52:04.835Z,32.37
2023-02-16T09:53:13.928Z,33.09
2023-02-16T09:54:31.551Z,32.74
2023-02-16T09:56:04.626Z,31.68
2023-02-16T09:57:32.772Z,32.53
2023-02-16T09:58:50.527Z,31.79
2023-02-16T10:00:01.205Z,31.26
2023-02-16T10:01:24.655Z,30.82
2023-02-16T10:02:29.963Z,30.99
2023-02-16T10:03:37.583Z,30.78
2023-02-16T10:04:50.488Z,31.08
2023-02-16T10:06:13.799Z,30.49
2023-02-16T10:07:36.887Z,29.99
2023-02-16T10:08:44.067Z,30.52
2023-02-16T10:09:53.964Z,30.43
2023-02-16T10:11:40.505Z,30.04
2023-02-16T10:12:49.520Z,29.98
2023-02-16T10:13:57.507Z,29.76
2023-02-16T10:15:30.431Z,29.59
2023-02-16T10:16:39.399Z,29.71
2023-02-16T10:17:49.231Z,29.42
2023-02-16T10:18:54.081Z,28.83
2023-02-16T10:20:42.397Z,29.00
2023-02-16T10:21:49.903Z,29.20
2023-02-16T10:23:13.388Z,28.56
2023-02-16T10:24:15.809Z,28.69
2023-02-16T10:25:46.567Z,28.38
2023-02-16T10:26:57.981Z,28.38
2023-02-16T10:28:16.336Z,28.04
2023-02-16T10:29:23.565Z,28.38
2023-02-16T10:30:25.901Z,28.94
2023-02-16T10:31:49.310Z,30.48
2023-02-16T10:33:07.099Z,30.59
2023-02-16T10:34:38.460Z,29.99
2023-02-16T10:35:50.176Z,30.24
2023-02-16T10:37:19.220Z,29.90
2023-02-16T10:38:32.178Z,29.66
2023-02-16T10:39:48.656Z,30.62
2023-02-16T10:41:01.616Z,29.87
2023-02-16T10:42:14.353Z,29.61
2023-02-16T10:43:18.655Z,29.90
2023-02-16T10:44:22.289Z,30.00
2023-02-16T10:45:33.704Z,29.27
2023-02-16T10:46:40.705Z,29.05
2023-02-16T10:47:45.359Z,28.96
2023-02-16T10:48:48.210Z,28.59
2023-02-16T10:49:50.807Z,28.67
2023-02-16T10:51:07.747Z,28.93
2023-02-16T10:52:11.387Z,28.96
2023-02-16T10:53:21.099Z,28.78
2023-02-16T10:54:27.358Z,28.24
2023-02-16T10:55:29.577Z,28.71
2023-02-16T10:56:57.275Z,28.86
2023-02-16T10:58:01.157Z,28.57
2023-02-16T10:59:08.203Z,28.33
2023-02-16T11:00:16.793Z,27.91
2023-02-16T11:01:35.188Z,27.80
2023-02-16T11:02:41.837Z,27.95
2023-02-16T11:03:47.911Z,27.57
2023-02-16T11:04:54.409Z,27.33
2023-02-16T11:05:56.418Z,27.68
2023-02-16T11:07:03.987Z,27.51
2023-02-16T11:08:08.215Z,27.85
2023-02-16T11:09:15.550Z,27.43
2023-02-16T11:10:42.398Z,27.28
2023-02-16T11:11:44.254Z,27.09
2023-02-16T11:12:54.062Z,27.19
2023-02-16T11:14:03.142Z,27.64
2023-02-16T11:15:22.201Z,27.38
2023-02-16T11:16:27.620Z,27.73
2023-02-16T11:17:32.087Z,28.52
2023-02-16T11:18:38.182Z,29.48
2023-02-16T11:19:51.711Z,30.41
2023-02-16T11:20:55.898Z,31.55
2023-02-16T11:21:58.801Z,31.09
2023-02-16T11:23:29.416Z,30.12
2023-02-16T11:24:38.935Z,30.65
2023-02-16T11:25:42.872Z,30.44
2023-02-16T11:26:58.875Z,31.34
2023-02-16T11:28:09.775Z,32.34
2023-02-16T11:29:21.276Z,32.40
2023-02-16T11:30:35.397Z,32.59
2023-02-16T11:31:40.648Z,33.48
2023-02-16T11:32:42.789Z,33.87
2023-02-16T11:34:28.005Z,34.23
2023-02-16T11:35:33.195Z,34.55
2023-02-16T11:36:39.534Z,34.88
2023-02-16T11:37:41.581Z,35.22
2023-02-16T11:38:59.618Z,35.17
2023-02-16T11:40:18.755Z,34.76
2023-02-16T11:41:24.613Z,35.22
2023-02-16T11:42:45.042Z,34.82
2023-02-16T11:43:47.194Z,35.48
2023-02-16T11:44:54.726Z,36.30
2023-02-16T11:46:06.299Z,36.30
2023-02-16T11:47:24.184Z,35.92
2023-02-16T11:48:29.032Z,36.01
2023-02-16T11:49:37.654Z,36.21
2023-02-16T11:50:55.246Z,35.92
2023-02-16T11:51:57.416Z,36.67
2023-02-16T11:53:12.376Z,36.76
2023-02-16T11:54:18.050Z,38.00
2023-02-16T11:55:28.584Z,38.31
2023-02-16T11:56:34.928Z,37.84
2023-02-16T11:57:37.540Z,36.91
2023-02-16T11:58:41.050Z,36.57
2023-02-16T11:59:43.112Z,36.16
2023-02-16T12:01:12.490Z,35.03
2023-02-16T12:02:17.774Z,33.73
2023-02-16T12:03:25.739Z,34.52
2023-02-16T12:04:36.943Z,34.08
2023-02-16T12:05:45.951Z,34.38
2023-02-16T12:07:16.687Z,33.85
2023-02-16T12:08:24.733Z,32.90
2023-02-16T12:10:03.908Z,32.75
2023-02-16T12:11:08.871Z,33.33
2023-02-16T12:12:18.048Z,33.21
2023-02-16T12:13:51.077Z,33.63
2023-02-16T12:15:17.957Z,34.04
2023-02-16T12:16:42.493Z,34.52
2023-02-16T12:17:56.413Z,35.39
2023-02-16T12:19:13.614Z,35.90
2023-02-16T12:20:18.575Z,35.11
2023-02-16T12:21:35.770Z,34.81
2023-02-16T12:22:40.261Z,34.21
2023-02-16T12:24:10.018Z,33.55
2023-02-16T12:25:36.833Z,33.02
2023-02-16T12:27:03.129Z,32.88
2023-02-16T12:28:19.345Z,32.73
2023-02-16T12:29:45.359Z,32.51
2023-02-16T12:31:17.540Z,32.38
2023-02-16T12:32:48.205Z,31.76
2023-02-16T12:34:18.195Z,33.84
2023-02-16T12:35:38.166Z,33.82
2023-02-16T12:36:40.976Z,33.84
2023-02-16T12:38:01.755Z,33.56
2023-02-16T12:39:12.973Z,34.03
2023-02-16T12:40:37.084Z,33.74
2023-02-16T12:42:13.849Z,35.19
2023-02-16T12:43:41.783Z,33.36
2023-02-16T12:44:52.496Z,34.91
2023-02-16T12:45:58.185Z,34.07
2023-02-16T12:47:12.958Z,34.77
2023-02-16T12:48:42.140Z,35.65
2023-02-16T12:49:51.836Z,35.19
2023-02-16T12:50:57.132Z,34.64
2023-02-16T12:52:11.349Z,34.40
2023-02-16T12:53:27.940Z,34.55
2023-02-16T12:54:55.588Z,34.62
2023-02-16T12:56:02.551Z,34.58
2023-02-16T12:57:15.968Z,34.50
2023-02-16T12:58:28.788Z,34.11
2023-02-16T12:59:59.618Z,33.36
2023-02-16T13:01:09.098Z,32.71
2023-02-16T13:02:27.040Z,32.99
2023-02-16T13:03:34.808Z,32.25
2023-02-16T13:05:14.940Z,31.62
2023-02-16T13:06:29.944Z,31.48
2023-02-16T13:07:38.269Z,31.29
2023-02-16T13:08:48.330Z,29.23
2023-02-16T13:10:04.638Z,29.04
2023-02-16T13:11:26.065Z,29.56
2023-02-16T13:12:53.149Z,29.96
2023-02-16T13:14:02.009Z,29.80
2023-02-16T13:15:12.817Z,29.65
2023-02-16T13:16:30.366Z,29.91
2023-02-16T13:17:43.496Z,29.46
2023-02-16T13:18:49.034Z,28.22
2023-02-16T13:19:52.367Z,27.78
2023-02-16T13:21:06.406Z,28.09
2023-02-16T13:22:46.107Z,27.67
2023-02-16T13:24:12.099Z,27.30
2023-02-16T13:25:17.378Z,27.60
2023-02-16T13:26:19.159Z,27.92
2023-02-16T13:27:28.185Z,28.67
2023-02-16T13:28:48.877Z,29.62
2023-02-16T13:30:26.653Z,30.12
2023-02-16T13:31:53.552Z,31.91
2023-02-16T13:33:29.741Z,32.46
2023-02-16T13:34:59.271Z,32.04
2023-02-16T13:36:01.230Z,32.27
2023-02-16T13:37:23.865Z,32.10
2023-02-16T13:38:47.407Z,33.24
2023-02-16T13:40:08.257Z,33.67
2023-02-16T13:41:19.458Z,34.61
2023-02-16T13:42:48.340Z,34.81
2023-02-16T13:44:02.204Z,34.69
2023-02-16T13:45:18.439Z,34.48
2023-02-16T13:46:43.252Z,34.56
2023-02-16T13:47:45.260Z,34.50
2023-02-16T13:48:50.323Z,32.32
2023-02-16T13:49:59.257Z,32.53
2023-02-16T13:51:05.475Z,31.31
2023-02-16T13:52:08.977Z,30.69
2023-02-16T13:53:21.649Z,30.69
2023-02-16T13:54:31.740Z,30.19
2023-02-16T13:55:37.543Z,30.58
2023-02-16T13:56:39.539Z,29.51
2023-02-16T13:57:50.845Z,30.22
2023-02-16T13:58:53.651Z,30.34
2023-02-16T14:00:02.168Z,31.27
2023-02-16T14:01:34.273Z,31.00
2023-02-16T14:02:58.843Z,32.13
2023-02-16T14:04:02.904Z,31.26
2023-02-16T14:05:12.473Z,31.76
2023-02-16T14:06:27.802Z,32.36
2023-02-16T14:07:38.617Z,32.15
2023-02-16T14:08:42.345Z,31.73
2023-02-16T14:09:49.547Z,32.33
2023-02-16T14:10:52.617Z,31.97
2023-02-16T14:11:59.690Z,33.07
2023-02-16T14:13:13.129Z,32.33
2023-02-16T14:14:33.656Z,33.19
2023-02-16T14:15:51.297Z,33.31
2023-02-16T14:16:54.620Z,33.53
2023-02-16T14:17:56.532Z,33.61
2023-02-16T14:19:06.348Z,34.07
2023-02-16T14:20:15.862Z,33.96
2023-02-16T14:21:42.905Z,34.59
2023-02-16T14:23:01.721Z,34.44
2023-02-16T14:24:06.858Z,34.98
2023-02-16T14:25:23.548Z,34.56